sensor_id;sensor_type;location;lat;lon;timestamp;temperature;humidity
9837;DHT22;4957;51.412;6.724;2022-09-14T00:00:50;19.80;78.50
9837;DHT22;4957;51.412;6.724;2022-09-14T00:03:16;19.80;78.70
9837;DHT22;4957;51.412;6.724;2022-09-14T00:05:42;19.80;79.10
9837;DHT22;4957;51.412;6.724;2022-09-14T00:08:08;19.80;79.00
9837;DHT22;4957;51.412;6.724;2022-09-14T00:10:41;19.80;79.20
9837;DHT22;4957;51.412;6.724;2022-09-14T00:13:07;19.80;79.30
9837;DHT22;4957;51.412;6.724;2022-09-14T00:15:38;19.80;79.30
9837;DHT22;4957;51.412;6.724;2022-09-14T00:18:05;19.80;79.50
9837;DHT22;4957;51.412;6.724;2022-09-14T00:20:32;19.70;79.30
9837;DHT22;4957;51.412;6.724;2022-09-14T00:22:59;19.70;79.70
9837;DHT22;4957;51.412;6.724;2022-09-14T00:25:25;19.70;79.90
9837;DHT22;4957;51.412;6.724;2022-09-14T00:27:51;19.70;80.00
9837;DHT22;4957;51.412;6.724;2022-09-14T00:30:17;19.60;80.10
9837;DHT22;4957;51.412;6.724;2022-09-14T00:32:43;19.60;80.30
9837;DHT22;4957;51.412;6.724;2022-09-14T00:35:09;19.60;80.50
9837;DHT22;4957;51.412;6.724;2022-09-14T00:37:36;19.50;80.60
9837;DHT22;4957;51.412;6.724;2022-09-14T00:40:04;19.50;80.90
9837;DHT22;4957;51.412;6.724;2022-09-14T00:42:30;19.50;81.00
9837;DHT22;4957;51.412;6.724;2022-09-14T00:45:15;19.40;81.00
9837;DHT22;4957;51.412;6.724;2022-09-14T00:47:41;19.40;82.00
9837;DHT22;4957;51.412;6.724;2022-09-14T00:50:09;19.40;81.60
9837;DHT22;4957;51.412;6.724;2022-09-14T00:52:37;19.40;81.90
9837;DHT22;4957;51.412;6.724;2022-09-14T00:55:11;19.40;82.00
9837;DHT22;4957;51.412;6.724;2022-09-14T00:57:46;19.30;81.90
9837;DHT22;4957;51.412;6.724;2022-09-14T01:00:16;19.30;82.10
9837;DHT22;4957;51.412;6.724;2022-09-14T01:02:42;19.30;82.50
9837;DHT22;4957;51.412;6.724;2022-09-14T01:05:09;19.30;82.30
9837;DHT22;4957;51.412;6.724;2022-09-14T01:07:48;19.20;82.40
9837;DHT22;4957;51.412;6.724;2022-09-14T01:10:32;19.20;82.90
9837;DHT22;4957;51.412;6.724;2022-09-14T01:16:19;19.10;83.40
9837;DHT22;4957;51.412;6.724;2022-09-14T01:18:52;19.10;83.70
9837;DHT22;4957;51.412;6.724;2022-09-14T01:21:27;19.10;83.70
9837;DHT22;4957;51.412;6.724;2022-09-14T01:24:25;19.10;84.00
9837;DHT22;4957;51.412;6.724;2022-09-14T01:30:06;19.00;83.70
9837;DHT22;4957;51.412;6.724;2022-09-14T01:32:38;19.00;84.70
9837;DHT22;4957;51.412;6.724;2022-09-14T01:35:37;19.00;84.00
9837;DHT22;4957;51.412;6.724;2022-09-14T01:38:14;19.00;84.10
9837;DHT22;4957;51.412;6.724;2022-09-14T01:40:45;18.90;83.50
9837;DHT22;4957;51.412;6.724;2022-09-14T01:43:24;18.90;83.90
9837;DHT22;4957;51.412;6.724;2022-09-14T01:45:53;18.90;84.00
9837;DHT22;4957;51.412;6.724;2022-09-14T01:48:30;18.90;84.10
9837;DHT22;4957;51.412;6.724;2022-09-14T01:50:59;18.80;84.40
9837;DHT22;4957;51.412;6.724;2022-09-14T01:53:38;18.80;84.30
9837;DHT22;4957;51.412;6.724;2022-09-14T01:56:19;18.80;84.50
9837;DHT22;4957;51.412;6.724;2022-09-14T01:58:53;18.80;84.50
9837;DHT22;4957;51.412;6.724;2022-09-14T02:01:27;18.70;84.60
9837;DHT22;4957;51.412;6.724;2022-09-14T02:03:59;18.70;84.70
9837;DHT22;4957;51.412;6.724;2022-09-14T02:06:35;18.70;84.90
9837;DHT22;4957;51.412;6.724;2022-09-14T02:09:03;18.80;85.30
9837;DHT22;4957;51.412;6.724;2022-09-14T02:11:29;18.70;85.20
9837;DHT22;4957;51.412;6.724;2022-09-14T02:13:54;18.70;85.30
9837;DHT22;4957;51.412;6.724;2022-09-14T02:16:21;18.70;85.50
9837;DHT22;4957;51.412;6.724;2022-09-14T02:18:48;18.70;85.70
9837;DHT22;4957;51.412;6.724;2022-09-14T02:21:21;18.70;85.80
9837;DHT22;4957;51.412;6.724;2022-09-14T02:23:49;18.60;86.00
9837;DHT22;4957;51.412;6.724;2022-09-14T02:26:16;18.60;85.80
9837;DHT22;4957;51.412;6.724;2022-09-14T02:28:43;18.50;86.20
9837;DHT22;4957;51.412;6.724;2022-09-14T02:31:36;18.50;86.20
9837;DHT22;4957;51.412;6.724;2022-09-14T02:37:10;18.40;86.80
9837;DHT22;4957;51.412;6.724;2022-09-14T02:51:05;18.30;87.90
9837;DHT22;4957;51.412;6.724;2022-09-14T02:53:43;18.30;88.50
9837;DHT22;4957;51.412;6.724;2022-09-14T02:56:12;18.30;87.90
9837;DHT22;4957;51.412;6.724;2022-09-14T02:58:42;18.30;87.90
9837;DHT22;4957;51.412;6.724;2022-09-14T03:01:14;18.30;88.10
9837;DHT22;4957;51.412;6.724;2022-09-14T03:03:40;18.20;88.00
9837;DHT22;4957;51.412;6.724;2022-09-14T03:06:06;18.20;88.10
9837;DHT22;4957;51.412;6.724;2022-09-14T03:08:32;18.20;88.30
9837;DHT22;4957;51.412;6.724;2022-09-14T03:10:58;18.20;88.40
9837;DHT22;4957;51.412;6.724;2022-09-14T03:13:24;18.20;88.40
9837;DHT22;4957;51.412;6.724;2022-09-14T03:15:50;18.20;88.50
9837;DHT22;4957;51.412;6.724;2022-09-14T03:18:16;18.20;88.70
9837;DHT22;4957;51.412;6.724;2022-09-14T03:20:42;18.10;88.90
9837;DHT22;4957;51.412;6.724;2022-09-14T03:23:08;18.10;89.20
9837;DHT22;4957;51.412;6.724;2022-09-14T03:25:37;18.10;89.40
9837;DHT22;4957;51.412;6.724;2022-09-14T03:28:03;18.10;89.40
9837;DHT22;4957;51.412;6.724;2022-09-14T03:30:30;18.10;89.70
9837;DHT22;4957;51.412;6.724;2022-09-14T03:32:57;18.10;89.60
9837;DHT22;4957;51.412;6.724;2022-09-14T03:35:24;18.00;89.70
9837;DHT22;4957;51.412;6.724;2022-09-14T03:37:49;18.00;89.90
9837;DHT22;4957;51.412;6.724;2022-09-14T03:40:16;18.00;90.00
9837;DHT22;4957;51.412;6.724;2022-09-14T03:42:46;18.00;90.10
9837;DHT22;4957;51.412;6.724;2022-09-14T03:45:14;18.00;90.10
9837;DHT22;4957;51.412;6.724;2022-09-14T03:47:40;18.00;90.20
9837;DHT22;4957;51.412;6.724;2022-09-14T03:50:08;18.00;90.30
9837;DHT22;4957;51.412;6.724;2022-09-14T03:52:35;18.00;90.30
9837;DHT22;4957;51.412;6.724;2022-09-14T03:55:02;18.00;90.40
9837;DHT22;4957;51.412;6.724;2022-09-14T03:57:27;18.00;90.40
9837;DHT22;4957;51.412;6.724;2022-09-14T03:59:53;17.90;90.50
9837;DHT22;4957;51.412;6.724;2022-09-14T04:02:19;17.90;90.60
9837;DHT22;4957;51.412;6.724;2022-09-14T04:04:44;17.90;90.70
9837;DHT22;4957;51.412;6.724;2022-09-14T04:07:14;17.90;90.70
9837;DHT22;4957;51.412;6.724;2022-09-14T04:09:40;17.90;90.80
9837;DHT22;4957;51.412;6.724;2022-09-14T04:12:06;17.90;90.70
9837;DHT22;4957;51.412;6.724;2022-09-14T04:14:32;17.90;90.80
9837;DHT22;4957;51.412;6.724;2022-09-14T04:16:58;17.90;90.80
9837;DHT22;4957;51.412;6.724;2022-09-14T04:19:23;17.90;90.80
9837;DHT22;4957;51.412;6.724;2022-09-14T04:21:49;17.90;90.90
9837;DHT22;4957;51.412;6.724;2022-09-14T04:24:15;17.80;90.90
9837;DHT22;4957;51.412;6.724;2022-09-14T04:26:42;17.80;90.90
9837;DHT22;4957;51.412;6.724;2022-09-14T04:29:09;17.80;90.90
9837;DHT22;4957;51.412;6.724;2022-09-14T04:31:35;17.80;90.90
9837;DHT22;4957;51.412;6.724;2022-09-14T04:34:01;17.80;90.90
9837;DHT22;4957;51.412;6.724;2022-09-14T04:36:28;17.80;90.90
9837;DHT22;4957;51.412;6.724;2022-09-14T04:38:59;17.80;91.10
9837;DHT22;4957;51.412;6.724;2022-09-14T04:41:26;17.80;91.20
9837;DHT22;4957;51.412;6.724;2022-09-14T04:43:53;17.80;91.30
9837;DHT22;4957;51.412;6.724;2022-09-14T04:46:26;17.80;91.40
9837;DHT22;4957;51.412;6.724;2022-09-14T04:48:52;17.80;91.40
9837;DHT22;4957;51.412;6.724;2022-09-14T04:51:23;17.80;91.30
9837;DHT22;4957;51.412;6.724;2022-09-14T04:53:50;17.80;91.40
9837;DHT22;4957;51.412;6.724;2022-09-14T04:56:18;17.80;91.40
9837;DHT22;4957;51.412;6.724;2022-09-14T04:58:49;17.80;91.50
9837;DHT22;4957;51.412;6.724;2022-09-14T05:01:21;17.80;91.50
9837;DHT22;4957;51.412;6.724;2022-09-14T05:03:47;17.80;91.50
9837;DHT22;4957;51.412;6.724;2022-09-14T05:06:15;17.70;91.40
9837;DHT22;4957;51.412;6.724;2022-09-14T05:08:42;17.70;91.60
9837;DHT22;4957;51.412;6.724;2022-09-14T05:11:11;17.70;91.60
9837;DHT22;4957;51.412;6.724;2022-09-14T05:13:37;17.70;91.70
9837;DHT22;4957;51.412;6.724;2022-09-14T05:16:30;17.70;91.70
9837;DHT22;4957;51.412;6.724;2022-09-14T05:18:58;17.70;92.00
9837;DHT22;4957;51.412;6.724;2022-09-14T05:21:26;17.70;91.70
9837;DHT22;4957;51.412;6.724;2022-09-14T05:23:53;17.70;91.70
9837;DHT22;4957;51.412;6.724;2022-09-14T05:26:20;17.70;91.80
9837;DHT22;4957;51.412;6.724;2022-09-14T05:28:49;17.70;91.90
9837;DHT22;4957;51.412;6.724;2022-09-14T05:31:16;17.70;92.10
9837;DHT22;4957;51.412;6.724;2022-09-14T05:33:41;17.60;91.90
9837;DHT22;4957;51.412;6.724;2022-09-14T05:36:09;17.60;92.10
9837;DHT22;4957;51.412;6.724;2022-09-14T05:38:36;17.60;92.20
9837;DHT22;4957;51.412;6.724;2022-09-14T05:41:04;17.60;92.30
9837;DHT22;4957;51.412;6.724;2022-09-14T05:43:30;17.60;92.10
9837;DHT22;4957;51.412;6.724;2022-09-14T05:46:00;17.60;92.10
9837;DHT22;4957;51.412;6.724;2022-09-14T05:48:29;17.60;92.30
9837;DHT22;4957;51.412;6.724;2022-09-14T05:50:59;17.50;92.10
9837;DHT22;4957;51.412;6.724;2022-09-14T05:53:26;17.50;92.20
9837;DHT22;4957;51.412;6.724;2022-09-14T05:56:10;17.50;92.30
9837;DHT22;4957;51.412;6.724;2022-09-14T05:58:37;17.50;92.40
9837;DHT22;4957;51.412;6.724;2022-09-14T06:03:40;17.40;92.50
9837;DHT22;4957;51.412;6.724;2022-09-14T06:06:06;17.40;92.50
9837;DHT22;4957;51.412;6.724;2022-09-14T06:08:33;17.40;92.40
9837;DHT22;4957;51.412;6.724;2022-09-14T06:11:04;17.40;92.40
9837;DHT22;4957;51.412;6.724;2022-09-14T06:13:29;17.30;92.60
9837;DHT22;4957;51.412;6.724;2022-09-14T06:15:55;17.30;92.50
9837;DHT22;4957;51.412;6.724;2022-09-14T06:18:25;17.30;92.60
9837;DHT22;4957;51.412;6.724;2022-09-14T06:20:51;17.30;92.60
9837;DHT22;4957;51.412;6.724;2022-09-14T06:23:19;17.30;92.70
9837;DHT22;4957;51.412;6.724;2022-09-14T06:25:45;17.30;92.80
9837;DHT22;4957;51.412;6.724;2022-09-14T06:28:11;17.20;92.60
9837;DHT22;4957;51.412;6.724;2022-09-14T06:30:37;17.20;92.70
9837;DHT22;4957;51.412;6.724;2022-09-14T06:33:06;17.20;92.90
9837;DHT22;4957;51.412;6.724;2022-09-14T06:35:32;17.20;92.90
9837;DHT22;4957;51.412;6.724;2022-09-14T06:37:57;17.20;92.80
9837;DHT22;4957;51.412;6.724;2022-09-14T06:40:23;17.20;92.80
9837;DHT22;4957;51.412;6.724;2022-09-14T06:42:49;17.20;92.90
9837;DHT22;4957;51.412;6.724;2022-09-14T06:45:14;17.20;92.90
9837;DHT22;4957;51.412;6.724;2022-09-14T06:47:40;17.30;92.80
9837;DHT22;4957;51.412;6.724;2022-09-14T06:50:06;17.20;92.80
9837;DHT22;4957;51.412;6.724;2022-09-14T06:52:35;17.30;93.00
9837;DHT22;4957;51.412;6.724;2022-09-14T06:55:01;17.20;92.90
9837;DHT22;4957;51.412;6.724;2022-09-14T06:57:27;17.20;92.90
9837;DHT22;4957;51.412;6.724;2022-09-14T06:59:52;17.20;93.20
9837;DHT22;4957;51.412;6.724;2022-09-14T07:02:18;17.20;93.20
9837;DHT22;4957;51.412;6.724;2022-09-14T07:04:44;17.20;93.20
9837;DHT22;4957;51.412;6.724;2022-09-14T07:07:09;17.10;93.10
9837;DHT22;4957;51.412;6.724;2022-09-14T07:09:36;17.10;93.30
9837;DHT22;4957;51.412;6.724;2022-09-14T07:12:02;17.10;93.40
9837;DHT22;4957;51.412;6.724;2022-09-14T07:14:27;17.10;93.30
9837;DHT22;4957;51.412;6.724;2022-09-14T07:16:53;17.10;93.40
9837;DHT22;4957;51.412;6.724;2022-09-14T07:19:19;17.10;93.40
9837;DHT22;4957;51.412;6.724;2022-09-14T07:21:45;17.10;93.40
9837;DHT22;4957;51.412;6.724;2022-09-14T07:24:12;17.10;93.50
9837;DHT22;4957;51.412;6.724;2022-09-14T07:26:40;17.10;93.50
9837;DHT22;4957;51.412;6.724;2022-09-14T07:29:10;17.10;93.50
9837;DHT22;4957;51.412;6.724;2022-09-14T07:31:47;17.10;93.60
9837;DHT22;4957;51.412;6.724;2022-09-14T07:34:13;17.10;93.60
9837;DHT22;4957;51.412;6.724;2022-09-14T07:36:40;17.10;93.60
9837;DHT22;4957;51.412;6.724;2022-09-14T07:39:09;17.10;93.70
9837;DHT22;4957;51.412;6.724;2022-09-14T07:41:35;17.10;93.70
9837;DHT22;4957;51.412;6.724;2022-09-14T07:44:02;17.10;93.80
9837;DHT22;4957;51.412;6.724;2022-09-14T07:46:30;17.10;93.80
9837;DHT22;4957;51.412;6.724;2022-09-14T07:49:01;17.10;93.90
9837;DHT22;4957;51.412;6.724;2022-09-14T07:51:29;17.10;94.00
9837;DHT22;4957;51.412;6.724;2022-09-14T07:53:55;17.10;93.90
9837;DHT22;4957;51.412;6.724;2022-09-14T07:56:21;17.10;94.00
9837;DHT22;4957;51.412;6.724;2022-09-14T07:58:47;17.00;94.00
9837;DHT22;4957;51.412;6.724;2022-09-14T08:01:15;17.00;94.10
9837;DHT22;4957;51.412;6.724;2022-09-14T08:03:43;17.00;94.20
9837;DHT22;4957;51.412;6.724;2022-09-14T08:06:12;17.10;94.30
9837;DHT22;4957;51.412;6.724;2022-09-14T08:08:40;17.00;94.30
9837;DHT22;4957;51.412;6.724;2022-09-14T08:11:08;17.00;94.30
9837;DHT22;4957;51.412;6.724;2022-09-14T08:13:37;17.10;94.40
9837;DHT22;4957;51.412;6.724;2022-09-14T08:16:04;17.10;94.40
9837;DHT22;4957;51.412;6.724;2022-09-14T08:18:31;17.10;94.50
9837;DHT22;4957;51.412;6.724;2022-09-14T08:21:09;17.10;94.50
9837;DHT22;4957;51.412;6.724;2022-09-14T08:23:35;17.10;94.60
9837;DHT22;4957;51.412;6.724;2022-09-14T08:26:07;17.10;94.60
9837;DHT22;4957;51.412;6.724;2022-09-14T08:28:33;17.10;95.00
9837;DHT22;4957;51.412;6.724;2022-09-14T08:31:12;17.10;94.70
9837;DHT22;4957;51.412;6.724;2022-09-14T08:33:40;17.10;94.80
9837;DHT22;4957;51.412;6.724;2022-09-14T08:36:08;17.00;94.70
9837;DHT22;4957;51.412;6.724;2022-09-14T08:38:34;17.10;94.90
9837;DHT22;4957;51.412;6.724;2022-09-14T08:43:51;17.10;95.00
9837;DHT22;4957;51.412;6.724;2022-09-14T08:46:35;17.10;94.80
9837;DHT22;4957;51.412;6.724;2022-09-14T08:49:13;17.10;95.00
9837;DHT22;4957;51.412;6.724;2022-09-14T08:51:40;17.20;95.10
9837;DHT22;4957;51.412;6.724;2022-09-14T08:54:08;17.20;95.10
9837;DHT22;4957;51.412;6.724;2022-09-14T08:56:39;17.10;95.10
9837;DHT22;4957;51.412;6.724;2022-09-14T09:05:28;17.20;95.30
9837;DHT22;4957;51.412;6.724;2022-09-14T09:08:07;17.20;95.30
9837;DHT22;4957;51.412;6.724;2022-09-14T09:10:36;17.20;95.30
9837;DHT22;4957;51.412;6.724;2022-09-14T09:13:04;17.20;95.40
9837;DHT22;4957;51.412;6.724;2022-09-14T09:15:53;17.20;95.40
9837;DHT22;4957;51.412;6.724;2022-09-14T09:18:48;17.20;95.50
9837;DHT22;4957;51.412;6.724;2022-09-14T09:21:58;17.20;95.50
9837;DHT22;4957;51.412;6.724;2022-09-14T09:24:27;17.20;95.40
9837;DHT22;4957;51.412;6.724;2022-09-14T09:26:54;17.20;95.40
9837;DHT22;4957;51.412;6.724;2022-09-14T09:29:20;17.20;95.40
9837;DHT22;4957;51.412;6.724;2022-09-14T09:31:55;17.20;95.40
9837;DHT22;4957;51.412;6.724;2022-09-14T09:34:28;17.20;95.60
9837;DHT22;4957;51.412;6.724;2022-09-14T09:36:54;17.20;95.50
9837;DHT22;4957;51.412;6.724;2022-09-14T09:39:24;17.20;95.40
9837;DHT22;4957;51.412;6.724;2022-09-14T09:41:56;17.20;95.40
9837;DHT22;4957;51.412;6.724;2022-09-14T09:44:23;17.20;95.40
9837;DHT22;4957;51.412;6.724;2022-09-14T09:46:56;17.20;95.40
9837;DHT22;4957;51.412;6.724;2022-09-14T09:49:26;17.30;95.50
9837;DHT22;4957;51.412;6.724;2022-09-14T09:51:54;17.30;95.40
9837;DHT22;4957;51.412;6.724;2022-09-14T09:54:27;17.30;95.40
9837;DHT22;4957;51.412;6.724;2022-09-14T09:56:55;17.20;95.50
9837;DHT22;4957;51.412;6.724;2022-09-14T09:59:33;17.30;95.50
9837;DHT22;4957;51.412;6.724;2022-09-14T10:02:21;17.30;95.60
9837;DHT22;4957;51.412;6.724;2022-09-14T10:07:29;17.30;95.70
9837;DHT22;4957;51.412;6.724;2022-09-14T10:12:22;17.30;95.70
9837;DHT22;4957;51.412;6.724;2022-09-14T10:14:48;17.40;95.80
9837;DHT22;4957;51.412;6.724;2022-09-14T10:17:21;17.40;95.80
9837;DHT22;4957;51.412;6.724;2022-09-14T10:19:49;17.40;95.80
9837;DHT22;4957;51.412;6.724;2022-09-14T10:22:29;17.40;95.80
9837;DHT22;4957;51.412;6.724;2022-09-14T10:27:33;17.40;95.80
9837;DHT22;4957;51.412;6.724;2022-09-14T10:30:02;17.40;95.90
9837;DHT22;4957;51.412;6.724;2022-09-14T10:32:29;17.40;96.10
9837;DHT22;4957;51.412;6.724;2022-09-14T10:34:57;17.40;96.00
9837;DHT22;4957;51.412;6.724;2022-09-14T10:37:43;17.40;96.00
9837;DHT22;4957;51.412;6.724;2022-09-14T10:40:18;17.40;96.00
9837;DHT22;4957;51.412;6.724;2022-09-14T10:45:35;17.40;95.90
9837;DHT22;4957;51.412;6.724;2022-09-14T10:50:50;17.50;95.90
9837;DHT22;4957;51.412;6.724;2022-09-14T11:03:38;17.50;95.80
9837;DHT22;4957;51.412;6.724;2022-09-14T11:11:58;17.60;95.80
9837;DHT22;4957;51.412;6.724;2022-09-14T11:17:43;17.60;95.90
9837;DHT22;4957;51.412;6.724;2022-09-14T11:23:19;17.50;95.70
9837;DHT22;4957;51.412;6.724;2022-09-14T11:28:32;17.50;95.60
9837;DHT22;4957;51.412;6.724;2022-09-14T11:31:03;17.50;95.70
9837;DHT22;4957;51.412;6.724;2022-09-14T11:33:35;17.50;95.70
9837;DHT22;4957;51.412;6.724;2022-09-14T11:36:15;17.50;95.70
9837;DHT22;4957;51.412;6.724;2022-09-14T11:38:47;17.50;95.70
9837;DHT22;4957;51.412;6.724;2022-09-14T11:43:46;17.50;95.80
9837;DHT22;4957;51.412;6.724;2022-09-14T11:46:19;17.50;95.70
9837;DHT22;4957;51.412;6.724;2022-09-14T11:49:34;17.50;95.80
9837;DHT22;4957;51.412;6.724;2022-09-14T11:51:59;17.60;95.90
9837;DHT22;4957;51.412;6.724;2022-09-14T11:54:27;17.50;95.80
9837;DHT22;4957;51.412;6.724;2022-09-14T11:57:02;17.60;95.80
9837;DHT22;4957;51.412;6.724;2022-09-14T12:17:41;17.50;95.40
9837;DHT22;4957;51.412;6.724;2022-09-14T12:26:23;17.40;95.10
9837;DHT22;4957;51.412;6.724;2022-09-14T12:28:58;17.40;94.90
9837;DHT22;4957;51.412;6.724;2022-09-14T12:34:22;17.40;94.90
9837;DHT22;4957;51.412;6.724;2022-09-14T12:39:20;17.30;94.70
9837;DHT22;4957;51.412;6.724;2022-09-14T12:44:35;17.30;94.70
9837;DHT22;4957;51.412;6.724;2022-09-14T12:47:37;17.30;94.80
9837;DHT22;4957;51.412;6.724;2022-09-14T12:50:19;17.30;94.70
9837;DHT22;4957;51.412;6.724;2022-09-14T12:53:13;17.30;94.80
9837;DHT22;4957;51.412;6.724;2022-09-14T12:56:03;17.30;94.90
9837;DHT22;4957;51.412;6.724;2022-09-14T12:58:39;17.30;94.90
9837;DHT22;4957;51.412;6.724;2022-09-14T13:01:30;17.30;95.00
9837;DHT22;4957;51.412;6.724;2022-09-14T13:03:59;17.30;95.00
9837;DHT22;4957;51.412;6.724;2022-09-14T13:06:33;17.30;94.90
9837;DHT22;4957;51.412;6.724;2022-09-14T13:09:00;17.30;94.70
9837;DHT22;4957;51.412;6.724;2022-09-14T13:11:32;17.30;94.60
9837;DHT22;4957;51.412;6.724;2022-09-14T13:14:01;17.30;94.50
9837;DHT22;4957;51.412;6.724;2022-09-14T13:16:41;17.30;94.40
9837;DHT22;4957;51.412;6.724;2022-09-14T13:19:22;17.30;94.30
9837;DHT22;4957;51.412;6.724;2022-09-14T13:21:51;17.30;94.20
9837;DHT22;4957;51.412;6.724;2022-09-14T13:26:52;17.20;94.10
9837;DHT22;4957;51.412;6.724;2022-09-14T13:29:18;17.20;94.10
9837;DHT22;4957;51.412;6.724;2022-09-14T13:31:44;17.20;94.10
9837;DHT22;4957;51.412;6.724;2022-09-14T13:34:26;17.20;94.10
9837;DHT22;4957;51.412;6.724;2022-09-14T13:36:53;17.20;94.50
9837;DHT22;4957;51.412;6.724;2022-09-14T13:39:34;17.30;94.30
9837;DHT22;4957;51.412;6.724;2022-09-14T13:42:01;17.30;94.40
9837;DHT22;4957;51.412;6.724;2022-09-14T13:44:37;17.30;94.50
9837;DHT22;4957;51.412;6.724;2022-09-14T13:47:12;17.40;94.70
9837;DHT22;4957;51.412;6.724;2022-09-14T13:49:40;17.40;94.80
9837;DHT22;4957;51.412;6.724;2022-09-14T14:03:25;17.50;94.80
9837;DHT22;4957;51.412;6.724;2022-09-14T14:05:52;17.40;94.70
9837;DHT22;4957;51.412;6.724;2022-09-14T14:08:34;17.40;94.60
9837;DHT22;4957;51.412;6.724;2022-09-14T14:11:03;17.40;94.70
9837;DHT22;4957;51.412;6.724;2022-09-14T14:13:32;17.50;94.80
9837;DHT22;4957;51.412;6.724;2022-09-14T14:16:19;17.50;94.80
9837;DHT22;4957;51.412;6.724;2022-09-14T14:18:52;17.50;95.00
9837;DHT22;4957;51.412;6.724;2022-09-14T14:23:49;17.60;95.20
9837;DHT22;4957;51.412;6.724;2022-09-14T14:26:23;17.60;95.20
9837;DHT22;4957;51.412;6.724;2022-09-14T14:28:50;17.60;95.30
9837;DHT22;4957;51.412;6.724;2022-09-14T14:31:18;17.70;95.40
9837;DHT22;4957;51.412;6.724;2022-09-14T14:33:47;17.70;95.50
9837;DHT22;4957;51.412;6.724;2022-09-14T14:36:13;17.70;95.50
9837;DHT22;4957;51.412;6.724;2022-09-14T14:38:40;17.80;95.40
9837;DHT22;4957;51.412;6.724;2022-09-14T14:41:15;17.80;95.50
9837;DHT22;4957;51.412;6.724;2022-09-14T14:43:42;17.80;95.70
9837;DHT22;4957;51.412;6.724;2022-09-14T14:46:11;17.80;95.70
9837;DHT22;4957;51.412;6.724;2022-09-14T14:48:37;17.90;95.70
9837;DHT22;4957;51.412;6.724;2022-09-14T14:51:03;17.90;95.80
9837;DHT22;4957;51.412;6.724;2022-09-14T14:53:30;17.90;95.80
9837;DHT22;4957;51.412;6.724;2022-09-14T14:55:56;17.90;95.50
9837;DHT22;4957;51.412;6.724;2022-09-14T14:58:22;17.90;95.40
9837;DHT22;4957;51.412;6.724;2022-09-14T15:00:48;18.00;95.50
9837;DHT22;4957;51.412;6.724;2022-09-14T15:03:15;18.00;95.50
9837;DHT22;4957;51.412;6.724;2022-09-14T15:05:42;18.00;95.40
9837;DHT22;4957;51.412;6.724;2022-09-14T15:08:09;18.00;95.40
9837;DHT22;4957;51.412;6.724;2022-09-14T15:10:35;18.00;95.20
9837;DHT22;4957;51.412;6.724;2022-09-14T15:13:02;18.00;95.10
9837;DHT22;4957;51.412;6.724;2022-09-14T15:15:27;18.00;94.90
9837;DHT22;4957;51.412;6.724;2022-09-14T15:17:54;18.00;94.80
9837;DHT22;4957;51.412;6.724;2022-09-14T15:20:20;18.00;94.80
9837;DHT22;4957;51.412;6.724;2022-09-14T15:22:47;18.00;94.80
9837;DHT22;4957;51.412;6.724;2022-09-14T15:25:13;18.10;94.80
9837;DHT22;4957;51.412;6.724;2022-09-14T15:27:40;18.00;94.70
9837;DHT22;4957;51.412;6.724;2022-09-14T15:30:07;18.00;94.80
9837;DHT22;4957;51.412;6.724;2022-09-14T15:32:33;18.00;94.80
9837;DHT22;4957;51.412;6.724;2022-09-14T15:34:59;18.00;94.70
9837;DHT22;4957;51.412;6.724;2022-09-14T15:37:25;18.00;94.80
9837;DHT22;4957;51.412;6.724;2022-09-14T15:39:51;18.00;94.70
9837;DHT22;4957;51.412;6.724;2022-09-14T15:42:17;17.90;94.70
9837;DHT22;4957;51.412;6.724;2022-09-14T15:44:44;18.00;94.60
9837;DHT22;4957;51.412;6.724;2022-09-14T15:47:13;17.90;94.50
9837;DHT22;4957;51.412;6.724;2022-09-14T15:49:39;17.90;94.50
9837;DHT22;4957;51.412;6.724;2022-09-14T15:52:07;17.90;94.40
9837;DHT22;4957;51.412;6.724;2022-09-14T15:54:34;17.90;94.40
9837;DHT22;4957;51.412;6.724;2022-09-14T15:57:02;17.90;94.30
9837;DHT22;4957;51.412;6.724;2022-09-14T15:59:28;17.80;94.30
9837;DHT22;4957;51.412;6.724;2022-09-14T16:01:54;17.80;94.20
9837;DHT22;4957;51.412;6.724;2022-09-14T16:04:20;17.80;94.20
9837;DHT22;4957;51.412;6.724;2022-09-14T16:06:46;17.70;94.10
9837;DHT22;4957;51.412;6.724;2022-09-14T16:09:13;17.70;94.10
9837;DHT22;4957;51.412;6.724;2022-09-14T16:11:40;17.70;94.10
9837;DHT22;4957;51.412;6.724;2022-09-14T16:14:07;17.70;94.10
9837;DHT22;4957;51.412;6.724;2022-09-14T16:16:34;17.70;94.10
9837;DHT22;4957;51.412;6.724;2022-09-14T16:19:11;17.70;94.10
9837;DHT22;4957;51.412;6.724;2022-09-14T16:21:39;17.70;94.10
9837;DHT22;4957;51.412;6.724;2022-09-14T16:24:07;17.60;94.00
9837;DHT22;4957;51.412;6.724;2022-09-14T16:26:38;17.60;94.00
9837;DHT22;4957;51.412;6.724;2022-09-14T16:29:06;17.50;94.00
9837;DHT22;4957;51.412;6.724;2022-09-14T16:31:35;17.50;94.00
9837;DHT22;4957;51.412;6.724;2022-09-14T16:34:05;17.50;94.10
9837;DHT22;4957;51.412;6.724;2022-09-14T16:36:34;17.40;94.00
9837;DHT22;4957;51.412;6.724;2022-09-14T16:39:02;17.40;94.00
9837;DHT22;4957;51.412;6.724;2022-09-14T16:41:29;17.30;93.90
9837;DHT22;4957;51.412;6.724;2022-09-14T16:43:59;17.40;94.00
9837;DHT22;4957;51.412;6.724;2022-09-14T16:46:26;17.40;94.10
9837;DHT22;4957;51.412;6.724;2022-09-14T16:48:53;17.30;94.00
9837;DHT22;4957;51.412;6.724;2022-09-14T16:51:22;17.30;93.90
9837;DHT22;4957;51.412;6.724;2022-09-14T16:53:49;17.30;94.00
9837;DHT22;4957;51.412;6.724;2022-09-14T16:56:18;17.30;94.00
9837;DHT22;4957;51.412;6.724;2022-09-14T16:58:45;17.30;94.00
9837;DHT22;4957;51.412;6.724;2022-09-14T17:01:20;17.30;94.00
9837;DHT22;4957;51.412;6.724;2022-09-14T17:03:47;17.30;94.00
9837;DHT22;4957;51.412;6.724;2022-09-14T17:06:16;17.30;94.00
9837;DHT22;4957;51.412;6.724;2022-09-14T17:08:43;17.20;94.00
9837;DHT22;4957;51.412;6.724;2022-09-14T17:11:09;17.20;94.00
9837;DHT22;4957;51.412;6.724;2022-09-14T17:13:36;17.20;94.00
9837;DHT22;4957;51.412;6.724;2022-09-14T17:16:04;17.20;94.00
9837;DHT22;4957;51.412;6.724;2022-09-14T17:18:32;17.20;94.00
9837;DHT22;4957;51.412;6.724;2022-09-14T17:21:00;17.20;94.10
9837;DHT22;4957;51.412;6.724;2022-09-14T17:23:27;17.20;94.20
9837;DHT22;4957;51.412;6.724;2022-09-14T17:25:53;17.20;94.20
9837;DHT22;4957;51.412;6.724;2022-09-14T17:28:21;17.10;94.20
9837;DHT22;4957;51.412;6.724;2022-09-14T17:30:55;17.10;94.30
9837;DHT22;4957;51.412;6.724;2022-09-14T17:33:22;17.10;94.40
9837;DHT22;4957;51.412;6.724;2022-09-14T17:35:49;17.10;94.30
9837;DHT22;4957;51.412;6.724;2022-09-14T17:38:16;17.10;94.30
9837;DHT22;4957;51.412;6.724;2022-09-14T17:40:42;17.10;94.30
9837;DHT22;4957;51.412;6.724;2022-09-14T17:43:09;17.00;94.30
9837;DHT22;4957;51.412;6.724;2022-09-14T17:45:36;17.10;94.40
9837;DHT22;4957;51.412;6.724;2022-09-14T17:48:04;17.10;94.40
9837;DHT22;4957;51.412;6.724;2022-09-14T17:50:31;17.00;94.30
9837;DHT22;4957;51.412;6.724;2022-09-14T17:52:57;17.00;94.30
9837;DHT22;4957;51.412;6.724;2022-09-14T17:55:24;17.00;94.30
9837;DHT22;4957;51.412;6.724;2022-09-14T17:57:49;16.90;94.30
9837;DHT22;4957;51.412;6.724;2022-09-14T18:00:15;16.90;94.30
9837;DHT22;4957;51.412;6.724;2022-09-14T18:02:41;16.90;94.40
9837;DHT22;4957;51.412;6.724;2022-09-14T18:05:07;16.90;94.30
9837;DHT22;4957;51.412;6.724;2022-09-14T18:07:33;16.90;94.30
9837;DHT22;4957;51.412;6.724;2022-09-14T18:09:59;16.90;94.30
9837;DHT22;4957;51.412;6.724;2022-09-14T18:12:24;16.80;94.20
9837;DHT22;4957;51.412;6.724;2022-09-14T18:14:50;16.80;94.10
9837;DHT22;4957;51.412;6.724;2022-09-14T18:17:16;16.80;94.20
9837;DHT22;4957;51.412;6.724;2022-09-14T18:19:41;16.80;94.10